Time;durP1;ratioP1;P1;durP2;ratioP2;P2;SDS_P1;SDS_P2;PMS_P1;PMS_P2;Temp;Humidity;BMP_temperature;BMP_pressure;BME280_temperature;BME280_humidity;BME280_pressure;Samples;Min_cycle;Max_cycle;Signal;HPM_P1;HPM_P2
2021/12/16 00:08:50;;;;;;;51.38;22.58;;;;;;;-0.52;73.30;95722.19;5149093;27;20049;-80
2021/12/16 00:19:29;;;;;;;87.68;31.73;;;;;;;-0.41;71.83;95721.91;5149047;27;20084;-80
2021/12/16 00:33:16;;;;;;;38.60;18.45;;;;;;;-0.58;72.59;95741.91;5132736;27;20039;-77
2021/12/16 00:35:45;;;;;;;39.20;17.98;;;;;;;-0.69;72.61;95712.38;5148272;27;20380;-80
2021/12/16 00:38:10;;;;;;;42.30;18.08;;;;;;;-0.51;72.18;95738.31;5148446;27;20499;-77
2021/12/16 00:40:40;;;;;;;48.03;21.77;;;;;;;-0.51;71.96;95736.59;5131233;27;20035;-77
2021/12/16 00:43:15;;;;;;;44.83;19.25;;;;;;;-0.53;72.50;95737.50;5131569;27;20031;-77
2021/12/16 00:46:30;;;;;;;38.22;17.73;;;;;;;-0.66;72.41;95739.53;5148141;27;20027;-80
2021/12/16 00:54:12;;;;;;;41.17;18.42;;;;;;;-0.81;72.56;95742.44;5148082;27;20494;-80
2021/12/16 00:56:38;;;;;;;40.70;18.92;;;;;;;-0.73;72.30;95748.22;5132259;27;20031;-79
2021/12/16 00:59:05;;;;;;;38.45;18.52;;;;;;;-0.76;72.03;95740.63;5113595;27;20047;-79
2021/12/16 01:34:37;;;;;;;33.53;14.73;;;;;;;-0.63;72.31;95731.81;5119121;27;20072;-79
2021/12/16 01:37:54;;;;;;;31.40;14.30;;;;;;;-0.68;71.91;95715.78;5133272;27;20084;-79
2021/12/16 01:51:01;;;;;;;31.92;14.80;;;;;;;-0.96;71.88;95710.50;5099362;28;20087;-79
2021/12/16 01:58:51;;;;;;;29.52;13.75;;;;;;;-0.81;71.44;95696.53;5132884;27;20062;-79
2021/12/16 02:01:19;;;;;;;30.83;13.60;;;;;;;-0.79;71.12;95694.78;5133104;27;20494;-80
2021/12/16 02:03:52;;;;;;;29.98;13.70;;;;;;;-0.77;71.87;95695.59;5116022;27;20403;-79
2021/12/16 02:06:59;;;;;;;28.50;12.85;;;;;;;-0.78;70.95;95704.97;5133760;27;20042;-79
2021/12/16 02:09:26;;;;;;;26.23;11.40;;;;;;;-0.74;71.46;95698.91;5130394;27;20495;-79
2021/12/16 02:12:03;;;;;;;27.65;12.07;;;;;;;-0.68;70.56;95697.91;5116003;27;20027;-79
2021/12/16 02:28:32;;;;;;;23.75;13.55;;;;;;;-0.69;72.20;95707.28;5117935;27;20039;-79
2021/12/16 02:36:53;;;;;;;30.35;13.48;;;;;;;-0.62;70.51;95705.41;5132801;27;20110;-79
2021/12/16 02:39:23;;;;;;;30.55;13.73;;;;;;;-0.58;71.11;95704.47;5117625;27;20051;-79
2021/12/16 02:41:52;;;;;;;30.25;14.45;;;;;;;-0.63;70.85;95706.28;5132071;27;20019;-79
2021/12/16 02:44:29;;;;;;;28.65;14.07;;;;;;;-0.84;71.42;95706.81;5132145;27;20035;-79
2021/12/16 02:49:47;;;;;;;27.42;13.30;;;;;;;-0.64;71.07;95703.75;5122533;27;20130;-79
2021/12/16 02:52:14;;;;;;;32.72;15.00;;;;;;;-0.69;71.17;95698.78;5131642;27;20532;-79
2021/12/16 02:54:39;;;;;;;33.35;17.88;;;;;;;-0.72;71.50;95706.53;5115169;27;20034;-79
2021/12/16 02:57:05;;;;;;;35.75;16.60;;;;;;;-0.80;71.90;95706.72;5132030;27;20027;-79
2021/12/16 02:59:31;;;;;;;32.70;15.70;;;;;;;-0.73;71.29;95704.84;5114400;27;20085;-79
2021/12/16 03:02:04;;;;;;;32.78;14.90;;;;;;;-0.78;71.20;95706.66;5115029;27;20023;-78
2021/12/16 03:04:30;;;;;;;28.65;13.65;;;;;;;-0.74;71.83;95706.56;5115704;27;20034;-79
2021/12/16 03:06:57;;;;;;;32.00;15.95;;;;;;;-0.83;72.08;95704.22;5132917;27;20446;-79
2021/12/16 03:09:47;;;;;;;32.30;15.02;;;;;;;-0.80;72.18;95700.78;5133101;27;20096;-79
2021/12/16 03:15:05;;;;;;;34.45;15.48;;;;;;;-0.85;71.85;95707.69;5133220;27;20057;-79
2021/12/16 03:17:58;;;;;;;34.25;15.30;;;;;;;-0.96;72.87;95697.75;5132604;27;20069;-79
2021/12/16 03:20:44;;;;;;;31.13;14.82;;;;;;;-0.97;72.16;95686.69;5130646;27;20118;-79
2021/12/16 03:26:56;;;;;;;29.25;14.20;;;;;;;-0.84;73.54;95701.72;5131780;27;20030;-79
2021/12/16 03:38:50;;;;;;;29.30;14.25;;;;;;;-0.68;72.58;95703.00;5114823;27;20032;-79
2021/12/16 03:41:15;;;;;;;27.65;13.77;;;;;;;-0.74;71.92;95711.66;5113729;27;20152;-79
2021/12/16 03:43:41;;;;;;;29.05;13.45;;;;;;;-0.72;71.84;95703.97;5131266;27;20039;-79
2021/12/16 03:48:49;;;;;;;34.63;16.27;;;;;;;-0.74;72.62;95706.56;5131363;28;20125;-79
2021/12/16 03:51:22;;;;;;;32.22;15.55;;;;;;;-0.66;72.12;95708.09;5131176;28;20023;-79
2021/12/16 03:53:49;;;;;;;29.02;15.75;;;;;;;-0.58;72.03;95713.84;5096958;28;20476;-79
2021/12/16 03:56:15;;;;;;;35.65;16.88;;;;;;;-0.66;72.52;95703.81;5114158;28;20061;-79
2021/12/16 03:58:40;;;;;;;32.72;15.48;;;;;;;-0.58;72.76;95707.03;5113642;28;20082;-79
2021/12/16 04:01:08;;;;;;;28.45;14.93;;;;;;;-0.54;72.03;95706.06;5113957;28;20415;-79
2021/12/16 04:03:34;;;;;;;27.98;14.32;;;;;;;-0.52;72.44;95711.13;5113543;28;20028;-79
2021/12/16 04:05:59;;;;;;;34.15;15.95;;;;;;;-0.50;72.34;95707.66;5131135;28;20381;-79
2021/12/16 04:08:25;;;;;;;30.00;15.15;;;;;;;-0.44;72.04;95705.84;5130967;28;20534;-78
2021/12/16 04:11:07;;;;;;;29.63;15.55;;;;;;;-0.44;72.42;95708.41;5096874;28;20068;-79
2021/12/16 04:13:40;;;;;;;52.88;26.48;;;;;;;-0.40;71.71;95707.41;5132202;27;20084;-79
2021/12/16 04:16:06;;;;;;;36.28;19.35;;;;;;;-0.40;72.09;95709.97;5114639;28;20035;-78
2021/12/16 04:18:32;;;;;;;38.75;20.92;;;;;;;-0.41;72.50;95698.94;5132220;27;20043;-79
2021/12/16 04:20:57;;;;;;;39.80;20.10;;;;;;;-0.36;72.44;95697.09;5113926;28;20019;-78
2021/12/16 04:23:23;;;;;;;35.33;18.27;;;;;;;-0.42;72.12;95704.91;5113764;28;20039;-79
2021/12/16 04:25:48;;;;;;;46.17;22.73;;;;;;;-0.39;72.16;95688.66;5096528;28;20030;-79
2021/12/16 04:28:20;;;;;;;34.10;18.42;;;;;;;-0.35;71.74;95690.28;5113773;28;20038;-79
2021/12/16 04:30:46;;;;;;;37.72;18.08;;;;;;;-0.27;71.37;95688.34;5113678;28;20443;-78
2021/12/16 04:33:11;;;;;;;29.58;15.90;;;;;;;-0.25;72.47;95694.28;5130644;28;20035;-79
2021/12/16 04:35:36;;;;;;;31.38;15.70;;;;;;;-0.23;71.69;95684.81;5131898;27;20541;-78
2021/12/16 04:38:03;;;;;;;29.67;15.65;;;;;;;-0.23;71.68;95672.06;5117441;27;20027;-79
2021/12/16 04:40:29;;;;;;;30.15;15.70;;;;;;;-0.23;72.21;95685.66;5117595;27;20023;-78
2021/12/16 04:43:00;;;;;;;27.63;14.70;;;;;;;-0.20;72.07;95689.03;5134648;27;20072;-79
2021/12/16 04:45:25;;;;;;;28.07;14.03;;;;;;;-0.35;71.72;95673.22;5134367;27;20020;-79
2021/12/16 04:47:51;;;;;;;32.80;16.00;;;;;;;-0.54;73.13;95680.53;5134087;27;20034;-79
2021/12/16 04:50:16;;;;;;;65.63;30.83;;;;;;;-0.43;72.83;95680.25;5117259;27;20031;-79
2021/12/16 04:52:42;;;;;;;44.35;22.05;;;;;;;-0.29;73.15;95680.72;5100146;27;20087;-78
2021/12/16 04:55:08;;;;;;;30.02;17.35;;;;;;;-0.31;72.44;95679.91;5134185;27;20035;-79
2021/12/16 04:57:34;;;;;;;36.42;18.85;;;;;;;-0.27;72.80;95667.94;5116983;27;20114;-79
2021/12/16 04:59:59;;;;;;;35.50;17.63;;;;;;;-0.22;72.11;95686.53;5134165;27;20103;-79
2021/12/16 05:02:25;;;;;;;62.30;26.75;;;;;;;-0.14;71.61;95674.38;5135525;27;20026;-77
2021/12/16 05:04:50;;;;;;;44.65;20.63;;;;;;;-0.13;72.50;95681.16;5134130;27;20042;-79
2021/12/16 05:07:16;;;;;;;38.53;18.77;;;;;;;-0.10;71.67;95687.91;5135302;27;20536;-79
2021/12/16 05:12:16;;;;;;;29.55;15.70;;;;;;;-0.25;72.37;95673.84;5134074;27;20027;-78
2021/12/16 05:14:42;;;;;;;26.48;13.65;;;;;;;-0.21;72.28;95685.63;5134235;27;20035;-79
2021/12/16 05:17:20;;;;;;;26.50;13.57;;;;;;;-0.15;71.77;95676.97;5099505;27;20510;-78
2021/12/16 05:19:49;;;;;;;31.08;17.02;;;;;;;-0.19;72.83;95678.78;5118891;27;20031;-79
2021/12/16 05:24:59;;;;;;;48.50;26.05;;;;;;;-0.21;72.73;95688.19;5133813;27;20042;-79
2021/12/16 05:27:24;;;;;;;36.55;19.58;;;;;;;-0.19;72.69;95689.00;5135003;27;20027;-79
2021/12/16 05:29:50;;;;;;;31.85;16.85;;;;;;;-0.13;71.97;95688.00;5133508;27;20039;-79
2021/12/16 05:32:15;;;;;;;27.95;15.63;;;;;;;-0.09;72.05;95684.44;5134864;27;20112;-79
2021/12/16 05:34:41;;;;;;;28.88;15.65;;;;;;;-0.24;72.84;95672.94;5116562;27;20039;-79
2021/12/16 05:37:08;;;;;;;34.08;21.40;;;;;;;-0.18;72.77;95683.00;5134912;27;20442;-79
2021/12/16 05:39:33;;;;;;;37.80;22.48;;;;;;;-0.23;73.29;95677.16;5099355;27;20515;-79
2021/12/16 05:41:58;;;;;;;34.08;17.15;;;;;;;-0.18;73.36;95683.00;5133583;27;20035;-79
2021/12/16 05:44:24;;;;;;;32.97;17.75;;;;;;;-0.13;73.15;95681.16;5133512;27;20481;-79
2021/12/16 05:46:49;;;;;;;31.52;18.55;;;;;;;-0.18;73.11;95672.78;5116098;27;20056;-79
2021/12/16 05:49:15;;;;;;;31.35;16.95;;;;;;;-0.08;73.08;95681.03;5098930;27;20079;-79
2021/12/16 05:51:42;;;;;;;35.50;18.98;;;;;;;-0.09;72.58;95676.78;5133264;27;20039;-79
2021/12/16 05:54:07;;;;;;;34.25;17.75;;;;;;;-0.15;73.25;95677.78;5133052;27;20412;-79
2021/12/16 05:56:33;;;;;;;31.65;19.00;;;;;;;-0.07;72.73;95688.66;5116123;27;20027;-79
2021/12/16 05:58:59;;;;;;;34.15;19.13;;;;;;;-0.09;73.09;95679.34;5115460;27;20054;-79
2021/12/16 06:01:27;;;;;;;38.70;20.75;;;;;;;-0.17;73.48;95674.44;5134347;27;20020;-79
2021/12/16 06:03:53;;;;;;;35.70;20.65;;;;;;;0.01;72.82;95691.00;5132977;27;20445;-79
2021/12/16 06:06:19;;;;;;;31.02;16.23;;;;;;;0.06;72.13;95683.22;5098897;27;20019;-79
2021/12/16 06:08:45;;;;;;;38.88;21.77;;;;;;;0.04;71.92;95687.53;5115344;27;20031;-79
2021/12/16 06:14:00;;;;;;;38.05;20.10;;;;;;;0.03;73.07;95684.13;5132860;27;20047;-79
2021/12/16 06:27:25;;;;;;;30.73;16.58;;;;;;;-0.03;71.79;95685.16;5132970;27;20054;-79
2021/12/16 06:29:51;;;;;;;25.88;13.20;;;;;;;0.01;71.66;95691.00;5099292;27;20032;-79
2021/12/16 06:32:16;;;;;;;24.30;13.88;;;;;;;-0.01;72.59;95685.91;5098365;27;20038;-79
2021/12/16 06:34:42;;;;;;;35.13;17.05;;;;;;;-0.06;72.78;95674.97;5132455;27;20031;-79
2021/12/16 06:37:07;;;;;;;33.67;18.33;;;;;;;0.03;72.36;95678.16;5132265;27;20031;-79
2021/12/16 06:39:33;;;;;;;35.35;18.48;;;;;;;-0.07;73.13;95680.16;5115096;27;20032;-79
2021/12/16 06:41:58;;;;;;;44.65;23.48;;;;;;;0.04;72.88;95682.41;5115064;27;20440;-79
2021/12/16 06:44:29;;;;;;;31.75;17.63;;;;;;;-0.03;72.14;95691.94;5115185;27;20389;-79
2021/12/16 06:47:01;;;;;;;29.65;18.48;;;;;;;-0.02;72.54;95680.88;5115943;27;20019;-79
2021/12/16 06:49:27;;;;;;;;;;;;;;;-0.07;72.98;95683.53;5116548;27;20039;-79
2021/12/16 06:51:58;;;;;;;35.30;19.38;;;;;;;-0.08;72.61;95683.59;5131763;27;19921;-79
2021/12/16 06:54:30;;;;;;;29.88;17.58;;;;;;;-0.05;72.77;95689.44;5099464;27;20030;-79
2021/12/16 06:57:42;;;;;;;42.35;23.02;;;;;;;-0.02;71.80;95678.31;5115933;27;20023;-79
2021/12/16 07:00:07;;;;;;;31.98;19.48;;;;;;;0.06;71.59;95691.72;5111984;27;20043;-79
2021/12/16 07:05:03;;;;;;;30.75;17.27;;;;;;;0.15;71.11;95690.63;5133445;27;20049;-79
2021/12/16 07:07:29;;;;;;;29.05;16.00;;;;;;;0.09;71.65;95680.56;5114506;27;20454;-79
2021/12/16 07:09:54;;;;;;;27.38;14.57;;;;;;;0.18;71.66;95698.19;5114550;27;20047;-79
2021/12/16 07:12:26;;;;;;;34.10;17.80;;;;;;;0.17;71.49;95693.97;5131712;27;20027;-79
2021/12/16 07:14:51;;;;;;;21.83;12.93;;;;;;;0.05;70.13;95689.19;5133341;27;20036;-79
2021/12/16 07:17:17;;;;;;;31.67;17.85;;;;;;;0.03;70.52;95678.16;5114475;27;20038;-78
2021/12/16 07:19:43;;;;;;;24.60;14.60;;;;;;;0.25;70.78;95694.56;5114549;27;20038;-79
2021/12/16 07:22:09;;;;;;;64.10;27.17;;;;;;;0.12;70.19;95691.53;5097512;27;20080;-79
2021/12/16 07:24:34;;;;;;;28.42;15.60;;;;;;;0.08;70.89;95699.31;5097531;27;20042;-79
2021/12/16 07:27:00;;;;;;;37.15;18.65;;;;;;;0.16;70.54;95699.94;5097257;27;20480;-78
2021/12/16 07:29:27;;;;;;;25.98;13.68;;;;;;;0.20;70.66;95688.78;5114084;27;20042;-79
2021/12/16 07:31:53;;;;;;;21.17;13.57;;;;;;;0.07;70.97;95683.16;5131403;27;20073;-79
2021/12/16 07:34:19;;;;;;;23.30;13.07;;;;;;;0.20;69.97;95691.31;5114508;27;20039;-79
2021/12/16 07:36:45;;;;;;;20.13;11.57;;;;;;;0.21;69.81;95680.22;5131152;27;20027;-77
2021/12/16 07:39:14;;;;;;;23.70;13.32;;;;;;;0.28;69.53;95686.84;5131083;27;20039;-79
2021/12/16 07:41:42;;;;;;;19.80;12.82;;;;;;;0.35;69.06;95688.31;5114805;27;20030;-79
2021/12/16 07:44:11;;;;;;;24.25;11.73;;;;;;;0.53;68.36;95686.97;5114616;27;20061;-79
2021/12/16 07:46:41;;;;;;;30.88;14.80;;;;;;;0.61;67.54;95689.25;5097998;28;20027;-79
2021/12/16 07:49:08;;;;;;;25.27;12.68;;;;;;;0.58;67.64;95695.31;5114336;28;20064;-79
2021/12/16 07:51:34;;;;;;;21.40;11.77;;;;;;;0.73;66.88;95691.47;5113906;28;20385;-79
2021/12/16 07:53:59;;;;;;;19.08;11.15;;;;;;;0.77;66.76;95685.38;5113767;28;20062;-79
2021/12/16 07:56:25;;;;;;;17.10;10.32;;;;;;;0.83;66.41;95697.97;5131156;28;20057;-79
2021/12/16 07:58:50;;;;;;;15.07;8.52;;;;;;;0.91;66.34;95702.00;5113534;28;20074;-79
2021/12/16 08:01:16;;;;;;;15.68;8.25;;;;;;;0.74;65.71;95690.56;5113978;28;20492;-79
2021/12/16 08:03:42;;;;;;;18.17;9.30;;;;;;;0.71;66.84;95708.56;5130921;27;20484;-79
2021/12/16 08:06:11;;;;;;;30.20;11.90;;;;;;;0.78;65.97;95712.63;5130922;27;20296;-78
2021/12/16 08:08:37;;;;;;;23.02;10.27;;;;;;;0.85;66.26;95714.09;5131753;27;20432;-79
2021/12/16 08:11:03;;;;;;;38.28;15.98;;;;;;;0.92;65.01;95690.88;5134582;27;20180;-78
2021/12/16 08:13:28;;;;;;;34.20;14.55;;;;;;;1.00;65.15;95694.03;5101025;27;20041;-77
2021/12/16 08:15:54;;;;;;;32.60;13.23;;;;;;;0.99;65.77;95685.53;5135176;27;20046;-78
2021/12/16 08:18:19;;;;;;;57.08;18.33;;;;;;;1.20;65.58;95696.84;5134867;27;20023;-77
2021/12/16 08:20:45;;;;;;;31.75;13.45;;;;;;;1.28;65.81;95699.13;5136264;27;20056;-77
2021/12/16 08:23:12;;;;;;;14.70;8.50;;;;;;;1.38;65.13;95692.00;5134834;27;20086;-77
2021/12/16 08:25:37;;;;;;;13.25;8.10;;;;;;;1.50;64.70;95704.38;5136130;27;20108;-77
2021/12/16 08:28:03;;;;;;;24.70;12.25;;;;;;;1.50;63.92;95689.84;5117384;27;20563;-79
2021/12/16 08:30:30;;;;;;;18.20;10.23;;;;;;;1.49;64.54;95700.97;5117707;27;20110;-79
2021/12/16 08:32:56;;;;;;;15.32;9.02;;;;;;;1.58;64.31;95676.78;5117743;27;20030;-79
2021/12/16 08:35:21;;;;;;;17.77;9.20;;;;;;;1.75;63.74;95689.84;5100595;27;20420;-80
2021/12/16 08:37:47;;;;;;;17.50;9.80;;;;;;;1.79;63.84;95683.75;5100216;27;20028;-79
2021/12/16 08:40:18;;;;;;;11.77;7.53;;;;;;;1.87;63.31;95688.63;5134582;27;20412;-80
2021/12/16 08:42:43;;;;;;;13.27;8.18;;;;;;;1.80;63.38;95692.25;5117465;27;20032;-79
2021/12/16 08:45:10;;;;;;;13.88;8.73;;;;;;;1.78;64.11;95700.03;5117629;27;20062;-79
2021/12/16 08:47:36;;;;;;;15.07;8.77;;;;;;;1.68;64.05;95690.97;5117296;27;20055;-80
2021/12/16 08:50:02;;;;;;;18.38;9.40;;;;;;;1.49;63.97;95684.78;5134643;27;20070;-80
2021/12/16 08:52:28;;;;;;;23.50;11.98;;;;;;;1.52;64.74;95684.69;5100620;27;20112;-80
2021/12/16 08:54:54;;;;;;;23.23;11.05;;;;;;;1.59;64.45;95686.16;5135919;27;20036;-80
2021/12/16 08:57:19;;;;;;;12.05;7.38;;;;;;;1.52;63.21;95677.00;5099930;27;20412;-79
2021/12/16 08:59:45;;;;;;;21.15;10.25;;;;;;;1.53;64.31;95691.47;5116919;27;20054;-80
2021/12/16 09:02:10;;;;;;;11.65;7.32;;;;;;;1.50;64.63;95689.00;5117011;27;20027;-79
2021/12/16 09:04:36;;;;;;;11.00;6.78;;;;;;;1.43;65.13;95685.00;5117092;27;20035;-79
2021/12/16 09:07:04;;;;;;;14.02;6.43;;;;;;;1.52;64.75;95674.44;5099611;27;20179;-79
2021/12/16 09:09:33;;;;;;;14.15;7.78;;;;;;;1.50;64.32;95666.78;5134157;27;20034;-79
2021/12/16 09:12:12;;;;;;;11.35;8.13;;;;;;;1.54;64.28;95667.56;5100841;27;20122;-80
2021/12/16 09:14:39;;;;;;;15.35;9.38;;;;;;;1.60;64.51;95681.88;5119114;27;20043;-79
2021/12/16 09:17:09;;;;;;;15.18;9.18;;;;;;;1.59;64.17;95680.19;5117025;27;20479;-79
2021/12/16 09:19:36;;;;;;;19.33;7.27;;;;;;;1.62;63.81;95677.53;5133824;27;20028;-80
2021/12/16 09:22:02;;;;;;;13.50;7.43;;;;;;;1.58;64.60;95663.97;5099330;27;20288;-79
2021/12/16 09:24:27;;;;;;;10.82;6.65;;;;;;;1.72;63.67;95664.34;5099950;27;20036;-80
2021/12/16 09:26:53;;;;;;;15.98;8.18;;;;;;;1.60;64.35;95658.81;5133763;27;20038;-79
2021/12/16 09:29:19;;;;;;;12.82;7.50;;;;;;;1.54;64.79;95652.19;5133271;27;20496;-80
2021/12/16 09:31:44;;;;;;;14.93;8.70;;;;;;;1.74;64.52;95654.88;5116602;27;20031;-80
2021/12/16 09:34:09;;;;;;;12.75;7.65;;;;;;;1.73;63.39;95653.22;5135023;27;20487;-80
2021/12/16 09:36:38;;;;;;;12.02;8.15;;;;;;;1.61;63.48;95640.00;5133624;27;20065;-80
2021/12/16 09:39:05;;;;;;;14.02;7.25;;;;;;;1.67;63.03;95644.91;5116345;27;20039;-80
2021/12/16 09:41:30;;;;;;;18.58;10.65;;;;;;;1.71;62.92;95646.47;5116359;27;20034;-80
2021/12/16 09:43:56;;;;;;;13.95;8.70;;;;;;;1.79;63.62;95634.22;5116290;27;20028;-80
2021/12/16 09:46:23;;;;;;;12.07;7.57;;;;;;;1.81;63.48;95635.00;5134636;27;20405;-80
2021/12/16 09:48:49;;;;;;;15.77;9.88;;;;;;;1.80;63.45;95628.22;5115698;27;20181;-80
2021/12/16 09:51:21;;;;;;;17.65;10.73;;;;;;;1.81;65.00;95627.31;5116298;27;20303;-79
2021/12/16 09:53:46;;;;;;;19.02;11.30;;;;;;;1.96;63.92;95636.19;5100646;27;20063;-79
2021/12/16 09:56:12;;;;;;;14.98;9.40;;;;;;;1.73;63.82;95630.16;5133116;27;20541;-78
2021/12/16 09:58:40;;;;;;;17.13;9.68;;;;;;;1.76;64.34;95627.50;5115548;27;20451;-80
2021/12/16 10:01:09;;;;;;;17.88;10.18;;;;;;;1.82;64.23;95628.16;5133189;27;20435;-80
2021/12/16 10:03:34;;;;;;;24.92;12.85;;;;;;;1.90;63.98;95631.28;5133192;27;20136;-80
2021/12/16 10:06:00;;;;;;;18.13;10.25;;;;;;;1.79;63.89;95632.50;5133009;27;20026;-80
2021/12/16 10:08:25;;;;;;;20.10;12.18;;;;;;;1.69;64.97;95628.59;5115547;27;20039;-80
2021/12/16 10:10:51;;;;;;;18.52;10.68;;;;;;;1.62;65.60;95618.63;5132903;27;20060;-80
2021/12/16 10:13:23;;;;;;;19.90;11.85;;;;;;;1.71;66.04;95620.84;5115728;27;20422;-80
2021/12/16 10:18:29;;;;;;;17.17;10.73;;;;;;;1.73;65.84;95612.22;5134322;27;20095;-79
2021/12/16 10:20:58;;;;;;;23.45;12.65;;;;;;;1.79;65.67;95612.00;5132502;27;20019;-80
2021/12/16 10:23:27;;;;;;;19.77;10.45;;;;;;;1.85;65.88;95605.81;5098719;27;20267;-80
2021/12/16 10:25:55;;;;;;;22.45;13.75;;;;;;;1.93;65.64;95588.44;5133806;27;20106;-80
2021/12/16 10:28:29;;;;;;;15.38;9.18;;;;;;;2.01;64.32;95590.75;5132361;27;20081;-81
2021/12/16 10:31:04;;;;;;;25.95;15.85;;;;;;;2.06;65.43;95587.97;5132612;27;20019;-80
2021/12/16 10:33:58;;;;;;;15.90;9.23;;;;;;;2.12;65.35;95588.59;5131270;27;20511;-80
2021/12/16 10:36:32;;;;;;;18.33;10.65;;;;;;;2.13;65.98;95581.75;5132031;27;20409;-80
2021/12/16 10:39:01;;;;;;;18.23;10.55;;;;;;;2.20;65.36;95578.03;5114901;27;20031;-80
2021/12/16 10:41:47;;;;;;;20.52;11.35;;;;;;;2.19;64.58;95569.53;5132382;27;20050;-80
2021/12/16 10:44:14;;;;;;;17.30;10.73;;;;;;;2.31;64.46;95575.91;5133705;27;20462;-80
2021/12/16 10:46:46;;;;;;;17.50;10.60;;;;;;;2.09;65.33;95578.47;5115016;27;20019;-79
2021/12/16 10:49:20;;;;;;;17.50;10.70;;;;;;;2.18;64.22;95583.25;5132078;27;20080;-80
2021/12/16 10:51:47;;;;;;;14.98;9.10;;;;;;;2.12;65.29;95573.22;5131898;27;20033;-79
2021/12/16 10:54:34;;;;;;;17.38;9.45;;;;;;;2.24;64.50;95577.88;5133284;27;20503;-80
2021/12/16 10:57:03;;;;;;;14.38;9.45;;;;;;;2.07;65.84;95574.28;5115044;27;20038;-81
2021/12/16 10:59:37;;;;;;;16.50;9.60;;;;;;;2.16;65.02;95564.50;5133195;27;20051;-80
2021/12/16 11:02:11;;;;;;;17.00;9.88;;;;;;;2.08;66.12;95558.84;5133136;27;20034;-80
2021/12/16 11:04:47;;;;;;;17.17;10.73;;;;;;;2.10;65.73;95577.56;5132132;27;20196;-80
2021/12/16 11:07:26;;;;;;;15.82;10.05;;;;;;;2.16;65.86;95564.50;5131817;27;20019;-80
2021/12/16 11:10:10;;;;;;;19.08;10.80;;;;;;;2.03;65.98;95558.19;5131298;27;20035;-80
2021/12/16 11:12:50;;;;;;;18.75;10.70;;;;;;;2.05;66.25;95566.66;5116467;27;20030;-80
2021/12/16 11:15:24;;;;;;;16.23;10.60;;;;;;;1.94;66.53;95561.09;5132588;27;20027;-80
2021/12/16 11:18:20;;;;;;;17.38;11.25;;;;;;;1.75;66.89;95537.88;5132845;27;20042;-80
2021/12/16 11:21:15;;;;;;;15.27;8.93;;;;;;;2.02;65.86;95559.06;5089221;28;20043;-80
2021/12/16 11:23:41;;;;;;;13.95;8.52;;;;;;;2.07;65.38;95559.75;5072084;28;20472;-80
2021/12/16 11:26:18;;;;;;;14.32;8.98;;;;;;;1.89;66.78;95552.72;5072587;28;20032;-79
2021/12/16 11:28:50;;;;;;;14.23;9.10;;;;;;;1.92;66.82;95555.19;5055671;28;20118;-80
2021/12/16 11:31:18;;;;;;;18.02;10.85;;;;;;;1.92;67.73;95547.50;5073009;28;20040;-80
2021/12/16 11:33:51;;;;;;;18.40;11.68;;;;;;;1.91;66.86;95556.09;5072545;28;20081;-80
2021/12/16 11:36:18;;;;;;;35.05;19.80;;;;;;;1.88;66.95;95553.63;5055633;28;20048;-80
2021/12/16 11:39:01;;;;;;;20.67;11.18;;;;;;;1.89;66.75;95545.88;5072403;28;20046;-80
2021/12/16 11:41:29;;;;;;;17.02;9.48;;;;;;;1.92;65.68;95562.88;5057766;28;20115;-80
2021/12/16 11:43:59;;;;;;;17.02;10.10;;;;;;;1.83;67.15;95563.22;5089002;28;20119;-80
2021/12/16 11:46:51;;;;;;;20.38;10.88;;;;;;;1.83;66.73;95568.34;5072551;28;20040;-79
2021/12/16 11:49:24;;;;;;;13.25;8.52;;;;;;;1.60;67.30;95564.06;5054929;28;20078;-81
2021/12/16 11:51:58;;;;;;;17.17;8.85;;;;;;;1.49;67.00;95560.13;5084938;28;20035;-79
2021/12/16 11:54:36;;;;;;;17.45;9.52;;;;;;;1.58;67.13;95564.09;5130952;28;20508;-80
2021/12/16 11:57:17;;;;;;;13.90;8.70;;;;;;;1.50;68.08;95561.78;5130763;27;20508;-80
2021/12/16 11:59:47;;;;;;;18.95;9.88;;;;;;;1.60;67.50;95559.75;5132284;27;20417;-80
2021/12/16 12:02:32;;;;;;;16.73;8.48;;;;;;;1.53;67.98;95546.34;5131167;28;20035;-79
2021/12/16 12:05:36;;;;;;;15.38;9.10;;;;;;;1.55;67.72;95557.34;5132195;27;20049;-74
2021/12/16 12:08:01;;;;;;;14.52;9.15;;;;;;;1.48;67.34;95552.53;5130410;27;20047;-74
2021/12/16 12:10:36;;;;;;;17.48;9.55;;;;;;;1.50;69.05;95551.56;5132076;27;20038;-73
2021/12/16 12:13:06;;;;;;;16.17;8.70;;;;;;;1.58;67.27;95545.34;5130967;28;20059;-74
2021/12/16 12:15:32;;;;;;;13.57;9.10;;;;;;;1.54;68.00;95555.69;5130930;28;20051;-74
2021/12/16 12:17:57;;;;;;;17.65;9.48;;;;;;;1.54;68.12;95557.44;5113556;28;20118;-73
2021/12/16 12:20:31;;;;;;;15.10;9.68;;;;;;;1.60;67.47;95558.94;5130841;28;20082;-73
2021/12/16 12:22:57;;;;;;;15.35;8.43;;;;;;;1.56;67.42;95555.63;5096972;28;20027;-74
2021/12/16 12:25:23;;;;;;;15.32;9.77;;;;;;;1.51;67.75;95554.97;5130778;28;20045;-74
2021/12/16 12:27:48;;;;;;;17.90;9.43;;;;;;;1.55;67.48;95556.53;5113248;28;20481;-74
2021/12/16 12:30:14;;;;;;;16.80;10.25;;;;;;;1.60;67.82;95559.75;5113622;28;20111;-73
2021/12/16 12:32:43;;;;;;;13.90;9.02;;;;;;;1.53;67.10;95554.03;5113723;28;20031;-73
2021/12/16 12:35:15;;;;;;;16.60;10.35;;;;;;;1.52;68.16;95557.47;5130545;28;20023;-74
2021/12/16 12:37:43;;;;;;;17.55;9.55;;;;;;;1.56;66.90;95558.19;5130700;28;20102;-73
2021/12/16 12:40:19;;;;;;;17.92;10.52;;;;;;;1.59;67.33;95558.09;5096672;28;20043;-73
2021/12/16 12:42:45;;;;;;;14.10;9.48;;;;;;;1.59;67.37;95563.22;5131817;27;20031;-73
2021/12/16 12:45:12;;;;;;;16.77;10.52;;;;;;;1.52;67.41;95560.03;5130552;28;20066;-73
2021/12/16 12:47:40;;;;;;;17.25;9.77;;;;;;;1.44;66.66;95549.22;5113668;28;20023;-74
2021/12/16 12:50:14;;;;;;;18.50;10.43;;;;;;;1.52;66.85;95556.63;5113129;28;20050;-73
2021/12/16 12:52:40;;;;;;;20.20;10.40;;;;;;;1.52;66.58;95560.03;5130339;27;20038;-73
2021/12/16 12:55:11;;;;;;;27.45;14.77;;;;;;;1.47;67.43;95548.28;5130686;28;20031;-73
2021/12/16 12:57:37;;;;;;;20.17;10.70;;;;;;;1.51;66.21;95549.84;5133448;27;20064;-73
2021/12/16 13:00:05;;;;;;;18.67;10.43;;;;;;;1.51;66.70;95543.00;5134132;27;20043;-74
2021/12/16 13:02:34;;;;;;;18.15;10.63;;;;;;;1.50;67.21;95533.63;5135356;27;20102;-73
2021/12/16 13:05:10;;;;;;;19.85;11.48;;;;;;;1.48;67.34;95539.72;5117140;27;20118;-74
2021/12/16 13:07:43;;;;;;;19.80;11.55;;;;;;;1.50;66.70;95560.97;5116796;27;20485;-74
2021/12/16 13:10:21;;;;;;;35.42;19.88;;;;;;;1.49;67.54;95572.94;5133935;27;20545;-74
2021/12/16 13:13:01;;;;;;;40.20;22.25;;;;;;;1.46;67.03;95562.81;5133886;27;20051;-74
2021/12/16 13:16:12;;;;;;;31.15;15.98;;;;;;;1.38;67.66;95562.25;5135162;27;20055;-73
2021/12/16 13:26:40;;;;;;;23.33;13.55;;;;;;;1.37;68.01;95555.47;5135222;27;20087;-73
2021/12/16 13:29:10;;;;;;;26.35;14.98;;;;;;;1.41;67.69;95554.44;5101085;27;20439;-73
2021/12/16 13:31:53;;;;;;;20.92;13.00;;;;;;;1.41;68.08;95553.63;5134744;27;20110;-74
2021/12/16 13:34:28;;;;;;;26.17;13.95;;;;;;;1.30;68.38;95530.94;5134971;27;20039;-73
2021/12/16 13:36:57;;;;;;;29.75;14.52;;;;;;;1.37;68.00;95547.78;5134699;27;20023;-74
2021/12/16 13:39:27;;;;;;;29.52;16.15;;;;;;;1.34;68.77;95543.59;5116601;27;20114;-74
2021/12/16 13:41:53;;;;;;;27.13;16.55;;;;;;;1.43;68.02;95556.97;5133384;27;20038;-73
2021/12/16 13:44:19;;;;;;;23.33;13.70;;;;;;;1.46;66.65;95556.84;5115991;27;20070;-73
2021/12/16 13:47:05;;;;;;;22.52;13.13;;;;;;;1.38;67.80;95549.44;5098852;27;20510;-74
2021/12/16 14:03:29;;;;;;;22.02;13.10;;;;;;;1.37;67.81;95562.31;5133801;27;20137;-73
2021/12/16 14:06:25;;;;;;;26.58;13.98;;;;;;;1.28;67.33;95560.88;5133042;27;20488;-73
2021/12/16 14:08:44;;;;;;;26.27;15.15;;;;;;;1.28;67.88;95569.41;5132119;27;20551;-74
2021/12/16 14:41:37;;;;;;;32.17;19.00;;;;;;;1.07;68.86;95581.22;5115522;27;20027;-76
2021/12/16 14:45:17;;;;;;;32.67;19.50;;;;;;;1.08;67.82;95582.03;5132307;27;20045;-76
2021/12/16 14:47:41;;;;;;;22.63;13.70;;;;;;;1.11;67.43;95587.91;5132213;27;20115;-76
2021/12/16 14:50:03;;;;;;;27.25;16.00;;;;;;;1.12;67.22;95588.75;5131960;27;20110;-76
2021/12/16 14:52:29;;;;;;;28.80;16.42;;;;;;;1.08;68.72;95597.41;5114627;27;20088;-76
2021/12/16 14:54:58;;;;;;;31.17;19.05;;;;;;;1.12;68.94;95591.31;5114929;27;20389;-76
2021/12/16 14:57:36;;;;;;;23.67;13.45;;;;;;;1.06;68.09;95591.50;5115022;27;20037;-77